sensor_id;sensor_type;location;lat;lon;timestamp;pressure;altitude;pressure_sealevel;temperature;humidity
63715;BME280;49858;48.956;9.076;2023-02-01T00:00:13;99416.50;;;4.43;100.00
63715;BME280;49858;48.956;9.076;2023-02-01T00:02:41;99455.78;;;4.36;100.00
63715;BME280;49858;48.956;9.076;2023-02-01T00:05:09;99414.75;;;4.47;100.00
63715;BME280;49858;48.956;9.076;2023-02-01T00:07:37;99430.19;;;4.38;100.00
63715;BME280;49858;48.956;9.076;2023-02-01T00:10:07;99404.38;;;4.49;100.00
63715;BME280;49858;48.956;9.076;2023-02-01T00:12:36;99415.59;;;4.47;100.00
63715;BME280;49858;48.956;9.076;2023-02-01T00:15:04;99426.09;;;4.54;100.00
63715;BME280;49858;48.956;9.076;2023-02-01T00:17:35;99421.44;;;4.54;100.00
63715;BME280;49858;48.956;9.076;2023-02-01T00:20:04;99418.31;;;4.61;100.00
63715;BME280;49858;48.956;9.076;2023-02-01T00:22:32;99411.13;;;4.51;100.00
63715;BME280;49858;48.956;9.076;2023-02-01T00:24:59;99418.78;;;4.35;100.00
63715;BME280;49858;48.956;9.076;2023-02-01T00:27:27;99422.47;;;4.58;100.00
63715;BME280;49858;48.956;9.076;2023-02-01T00:29:55;99424.22;;;4.35;100.00
63715;BME280;49858;48.956;9.076;2023-02-01T00:32:23;99413.53;;;4.39;100.00
63715;BME280;49858;48.956;9.076;2023-02-01T00:34:52;99420.81;;;4.44;100.00
63715;BME280;49858;48.956;9.076;2023-02-01T00:37:20;99397.47;;;4.56;100.00
63715;BME280;49858;48.956;9.076;2023-02-01T00:39:48;99385.28;;;4.35;100.00
63715;BME280;49858;48.956;9.076;2023-02-01T00:42:16;99387.69;;;4.36;100.00
63715;BME280;49858;48.956;9.076;2023-02-01T00:44:45;99375.09;;;4.41;100.00
63715;BME280;49858;48.956;9.076;2023-02-01T00:47:13;99371.16;;;4.47;100.00
63715;BME280;49858;48.956;9.076;2023-02-01T00:49:41;99375.81;;;4.46;100.00
63715;BME280;49858;48.956;9.076;2023-02-01T00:52:10;99375.81;;;4.46;100.00
63715;BME280;49858;48.956;9.076;2023-02-01T00:54:37;99366.94;;;4.41;100.00
63715;BME280;49858;48.956;9.076;2023-02-01T00:57:06;99357.84;;;4.45;100.00
63715;BME280;49858;48.956;9.076;2023-02-01T00:59:34;99357.28;;;4.48;100.00
63715;BME280;49858;48.956;9.076;2023-02-01T01:02:01;99354.16;;;4.55;100.00
63715;BME280;49858;48.956;9.076;2023-02-01T01:04:29;99341.41;;;4.50;100.00
63715;BME280;49858;48.956;9.076;2023-02-01T01:06:57;99358.66;;;4.46;100.00
63715;BME280;49858;48.956;9.076;2023-02-01T01:09:26;99356.06;;;4.54;100.00
63715;BME280;49858;48.956;9.076;2023-02-01T01:11:54;99367.28;;;4.53;100.00
63715;BME280;49858;48.956;9.076;2023-02-01T01:14:23;99354.47;;;4.67;100.00
63715;BME280;49858;48.956;9.076;2023-02-01T01:16:50;99375.56;;;4.61;100.00
63715;BME280;49858;48.956;9.076;2023-02-01T01:19:18;99368.69;;;4.64;100.00
63715;BME280;49858;48.956;9.076;2023-02-01T01:21:46;99376.28;;;4.67;100.00
63715;BME280;49858;48.956;9.076;2023-02-01T01:24:14;99381.19;;;4.65;100.00
63715;BME280;49858;48.956;9.076;2023-02-01T01:26:43;99371.94;;;4.66;100.00
63715;BME280;49858;48.956;9.076;2023-02-01T01:29:11;99373.66;;;4.76;100.00
63715;BME280;49858;48.956;9.076;2023-02-01T01:31:39;99382.13;;;4.74;100.00
63715;BME280;49858;48.956;9.076;2023-02-01T01:34:08;99373.81;;;4.66;100.00
63715;BME280;49858;48.956;9.076;2023-02-01T01:36:36;99400.50;;;4.69;100.00
63715;BME280;49858;48.956;9.076;2023-02-01T01:39:04;99380.50;;;4.59;100.00
63715;BME280;49858;48.956;9.076;2023-02-01T01:41:32;99377.09;;;4.68;100.00
63715;BME280;49858;48.956;9.076;2023-02-01T01:47:16;99382.34;;;4.78;100.00
63715;BME280;49858;48.956;9.076;2023-02-01T01:49:43;99371.03;;;4.84;100.00
63715;BME280;49858;48.956;9.076;2023-02-01T01:52:12;99384.03;;;4.60;100.00
63715;BME280;49858;48.956;9.076;2023-02-01T01:54:43;99370.63;;;4.77;100.00
63715;BME280;49858;48.956;9.076;2023-02-01T01:57:16;99382.31;;;4.64;100.00
63715;BME280;49858;48.956;9.076;2023-02-01T01:59:50;99368.81;;;4.86;100.00
63715;BME280;49858;48.956;9.076;2023-02-01T02:02:22;99371.03;;;4.71;100.00
63715;BME280;49858;48.956;9.076;2023-02-01T02:04:49;99370.13;;;4.75;100.00
63715;BME280;49858;48.956;9.076;2023-02-01T02:07:23;99375.88;;;4.74;100.00
63715;BME280;49858;48.956;9.076;2023-02-01T02:09:52;99366.69;;;4.83;100.00
63715;BME280;49858;48.956;9.076;2023-02-01T02:12:27;99366.59;;;4.88;100.00
63715;BME280;49858;48.956;9.076;2023-02-01T02:14:56;99362.34;;;4.69;100.00
63715;BME280;49858;48.956;9.076;2023-02-01T02:17:31;99366.09;;;4.73;100.00
63715;BME280;49858;48.956;9.076;2023-02-01T02:20:27;99353.59;;;4.85;100.00
63715;BME280;49858;48.956;9.076;2023-02-01T02:23:40;99372.66;;;4.72;100.00
63715;BME280;49858;48.956;9.076;2023-02-01T02:29:46;99357.91;;;4.86;100.00
63715;BME280;49858;48.956;9.076;2023-02-01T02:35:24;99351.75;;;4.81;100.00
63715;BME280;49858;48.956;9.076;2023-02-01T02:37:59;99348.03;;;4.91;100.00
63715;BME280;49858;48.956;9.076;2023-02-01T02:40:33;99347.41;;;4.94;100.00
63715;BME280;49858;48.956;9.076;2023-02-01T02:43:10;99336.44;;;4.99;100.00
63715;BME280;49858;48.956;9.076;2023-02-01T02:46:05;99340.75;;;4.86;100.00
63715;BME280;49858;48.956;9.076;2023-02-01T02:48:58;99342.25;;;4.78;100.00
63715;BME280;49858;48.956;9.076;2023-02-01T02:51:32;99334.09;;;4.78;100.00
63715;BME280;49858;48.956;9.076;2023-02-01T02:54:23;99355.88;;;4.78;100.00
63715;BME280;49858;48.956;9.076;2023-02-01T02:57:26;99329.97;;;4.81;100.00
63715;BME280;49858;48.956;9.076;2023-02-01T03:00:16;99331.47;;;4.87;100.00
63715;BME280;49858;48.956;9.076;2023-02-01T03:03:03;99341.66;;;4.81;100.00
63715;BME280;49858;48.956;9.076;2023-02-01T03:05:49;99328.84;;;4.82;100.00
63715;BME280;49858;48.956;9.076;2023-02-01T03:08:21;99303.41;;;4.86;100.00
63715;BME280;49858;48.956;9.076;2023-02-01T03:10:57;99294.31;;;4.77;100.00
63715;BME280;49858;48.956;9.076;2023-02-01T03:13:33;99300.88;;;4.76;100.00
63715;BME280;49858;48.956;9.076;2023-02-01T03:16:08;99295.13;;;4.78;100.00
63715;BME280;49858;48.956;9.076;2023-02-01T03:18:45;99304.53;;;4.85;100.00
63715;BME280;49858;48.956;9.076;2023-02-01T03:21:20;99292.06;;;4.93;100.00
63715;BME280;49858;48.956;9.076;2023-02-01T03:23:52;99294.31;;;4.91;100.00
63715;BME280;49858;48.956;9.076;2023-02-01T03:26:22;99289.25;;;4.98;100.00
63715;BME280;49858;48.956;9.076;2023-02-01T03:28:54;99290.69;;;4.96;100.00
63715;BME280;49858;48.956;9.076;2023-02-01T03:31:24;99281.59;;;5.00;100.00
63715;BME280;49858;48.956;9.076;2023-02-01T03:33:52;99286.81;;;4.97;100.00
63715;BME280;49858;48.956;9.076;2023-02-01T03:36:25;99292.28;;;4.97;100.00
63715;BME280;49858;48.956;9.076;2023-02-01T03:39:01;99288.84;;;5.05;100.00
63715;BME280;49858;48.956;9.076;2023-02-01T03:41:35;99297.41;;;4.98;100.00
63715;BME280;49858;48.956;9.076;2023-02-01T03:44:12;99297.63;;;5.02;100.00
63715;BME280;49858;48.956;9.076;2023-02-01T03:46:44;99290.69;;;4.96;100.00
63715;BME280;49858;48.956;9.076;2023-02-01T03:49:19;99287.63;;;5.11;100.00
63715;BME280;49858;48.956;9.076;2023-02-01T03:51:51;99283.84;;;5.21;100.00
63715;BME280;49858;48.956;9.076;2023-02-01T03:54:22;99305.81;;;5.02;100.00
63715;BME280;49858;48.956;9.076;2023-02-01T03:56:52;99282.69;;;4.99;100.00
63715;BME280;49858;48.956;9.076;2023-02-01T03:59:22;99281.47;;;5.05;100.00
63715;BME280;49858;48.956;9.076;2023-02-01T04:01:50;99259.69;;;4.92;100.00
63715;BME280;49858;48.956;9.076;2023-02-01T04:04:19;99261.00;;;4.94;100.00
63715;BME280;49858;48.956;9.076;2023-02-01T04:06:51;99248.47;;;4.93;100.00
63715;BME280;49858;48.956;9.076;2023-02-01T04:09:21;99263.53;;;4.91;100.00
63715;BME280;49858;48.956;9.076;2023-02-01T04:11:49;99247.75;;;5.01;100.00
63715;BME280;49858;48.956;9.076;2023-02-01T04:14:17;99269.44;;;5.06;100.00
63715;BME280;49858;48.956;9.076;2023-02-01T04:16:45;99261.16;;;4.98;100.00
63715;BME280;49858;48.956;9.076;2023-02-01T04:19:12;99251.78;;;5.04;100.00
63715;BME280;49858;48.956;9.076;2023-02-01T04:21:40;99258.53;;;5.06;100.00
63715;BME280;49858;48.956;9.076;2023-02-01T04:24:08;99273.41;;;5.00;100.00
63715;BME280;49858;48.956;9.076;2023-02-01T04:26:38;99275.91;;;5.10;100.00
63715;BME280;49858;48.956;9.076;2023-02-01T04:29:08;99281.25;;;5.16;100.00
63715;BME280;49858;48.956;9.076;2023-02-01T04:31:36;99288.63;;;5.15;100.00
63715;BME280;49858;48.956;9.076;2023-02-01T04:34:04;99286.50;;;5.12;100.00
63715;BME280;49858;48.956;9.076;2023-02-01T04:36:31;99265.19;;;5.14;100.00
63715;BME280;49858;48.956;9.076;2023-02-01T04:38:59;99278.94;;;5.09;100.00
63715;BME280;49858;48.956;9.076;2023-02-01T04:41:27;99279.75;;;5.09;100.00
63715;BME280;49858;48.956;9.076;2023-02-01T04:43:57;99270.69;;;5.00;100.00
63715;BME280;49858;48.956;9.076;2023-02-01T04:46:25;99246.03;;;4.92;100.00
63715;BME280;49858;48.956;9.076;2023-02-01T04:48:53;99240.09;;;4.90;100.00
63715;BME280;49858;48.956;9.076;2023-02-01T04:51:21;99269.47;;;4.93;100.00
63715;BME280;49858;48.956;9.076;2023-02-01T04:53:49;99232.91;;;4.94;100.00
63715;BME280;49858;48.956;9.076;2023-02-01T04:56:16;99252.88;;;5.03;100.00
63715;BME280;49858;48.956;9.076;2023-02-01T04:58:44;99261.16;;;4.98;100.00
63715;BME280;49858;48.956;9.076;2023-02-01T05:01:13;99277.63;;;4.93;100.00
63715;BME280;49858;48.956;9.076;2023-02-01T05:03:41;99242.50;;;5.05;100.00
63715;BME280;49858;48.956;9.076;2023-02-01T05:06:09;99260.78;;;5.04;100.00
63715;BME280;49858;48.956;9.076;2023-02-01T05:08:37;99269.97;;;4.95;100.00
63715;BME280;49858;48.956;9.076;2023-02-01T05:11:05;99253.22;;;4.87;100.00
63715;BME280;49858;48.956;9.076;2023-02-01T05:13:33;99260.59;;;4.87;100.00
63715;BME280;49858;48.956;9.076;2023-02-01T05:16:16;99262.09;;;4.79;100.00
63715;BME280;49858;48.956;9.076;2023-02-01T05:18:46;99272.13;;;4.43;100.00
63715;BME280;49858;48.956;9.076;2023-02-01T05:21:14;99283.91;;;4.38;100.00
63715;BME280;49858;48.956;9.076;2023-02-01T05:23:42;99249.50;;;4.42;100.00
63715;BME280;49858;48.956;9.076;2023-02-01T05:26:27;99245.38;;;4.45;100.00
63715;BME280;49858;48.956;9.076;2023-02-01T05:28:55;99243.88;;;4.39;100.00
63715;BME280;49858;48.956;9.076;2023-02-01T05:31:26;99252.31;;;4.51;100.00
63715;BME280;49858;48.956;9.076;2023-02-01T05:33:54;99261.94;;;4.48;100.00
63715;BME280;49858;48.956;9.076;2023-02-01T05:36:22;99251.63;;;4.59;100.00
63715;BME280;49858;48.956;9.076;2023-02-01T05:38:50;99275.56;;;4.62;100.00
63715;BME280;49858;48.956;9.076;2023-02-01T05:41:18;99280.91;;;4.67;100.00
63715;BME280;49858;48.956;9.076;2023-02-01T05:43:45;99258.47;;;4.70;100.00
63715;BME280;49858;48.956;9.076;2023-02-01T05:46:13;99271.00;;;4.71;100.00
63715;BME280;49858;48.956;9.076;2023-02-01T05:48:43;99275.13;;;4.82;100.00
63715;BME280;49858;48.956;9.076;2023-02-01T05:51:11;99297.03;;;4.77;100.00
63715;BME280;49858;48.956;9.076;2023-02-01T05:53:39;99306.34;;;4.76;100.00
63715;BME280;49858;48.956;9.076;2023-02-01T05:56:07;99283.81;;;4.84;100.00
63715;BME280;49858;48.956;9.076;2023-02-01T05:58:35;99329.03;;;4.72;100.00
63715;BME280;49858;48.956;9.076;2023-02-01T06:01:03;99305.81;;;4.88;100.00
63715;BME280;49858;48.956;9.076;2023-02-01T06:03:31;99298.06;;;4.81;100.00
63715;BME280;49858;48.956;9.076;2023-02-01T06:06:01;99300.47;;;4.69;100.00
63715;BME280;49858;48.956;9.076;2023-02-01T06:08:29;99320.56;;;4.73;100.00
63715;BME280;49858;48.956;9.076;2023-02-01T06:10:58;99306.22;;;4.81;100.00
63715;BME280;49858;48.956;9.076;2023-02-01T06:13:26;99293.50;;;4.91;100.00
63715;BME280;49858;48.956;9.076;2023-02-01T06:15:54;99284.81;;;4.75;100.00
63715;BME280;49858;48.956;9.076;2023-02-01T06:18:22;99306.44;;;4.71;100.00
63715;BME280;49858;48.956;9.076;2023-02-01T06:20:53;99288.16;;;4.85;100.00
63715;BME280;49858;48.956;9.076;2023-02-01T06:23:23;99327.22;;;4.67;100.00
63715;BME280;49858;48.956;9.076;2023-02-01T06:25:51;99297.75;;;4.83;100.00
63715;BME280;49858;48.956;9.076;2023-02-01T06:28:19;99287.16;;;4.81;100.00
63715;BME280;49858;48.956;9.076;2023-02-01T06:30:48;99301.47;;;4.73;100.00
63715;BME280;49858;48.956;9.076;2023-02-01T06:33:16;99276.25;;;4.95;100.00
63715;BME280;49858;48.956;9.076;2023-02-01T06:35:47;99274.53;;;4.85;100.00
63715;BME280;49858;48.956;9.076;2023-02-01T06:38:14;99294.91;;;4.88;100.00
63715;BME280;49858;48.956;9.076;2023-02-01T06:40:44;99283.50;;;4.86;100.00
63715;BME280;49858;48.956;9.076;2023-02-01T06:43:11;99276.75;;;4.83;100.00
63715;BME280;49858;48.956;9.076;2023-02-01T06:45:39;99289.66;;;4.92;100.00
63715;BME280;49858;48.956;9.076;2023-02-01T06:48:08;99289.66;;;5.05;100.00
63715;BME280;49858;48.956;9.076;2023-02-01T06:50:35;99301.84;;;5.08;100.00
63715;BME280;49858;48.956;9.076;2023-02-01T06:53:03;99310.94;;;5.03;100.00
63715;BME280;49858;48.956;9.076;2023-02-01T06:55:33;99317.72;;;4.92;100.00
63715;BME280;49858;48.956;9.076;2023-02-01T06:58:02;99317.63;;;4.97;100.00
63715;BME280;49858;48.956;9.076;2023-02-01T07:00:30;99320.94;;;5.08;100.00
63715;BME280;49858;48.956;9.076;2023-02-01T07:02:58;99337.22;;;4.85;100.00
63715;BME280;49858;48.956;9.076;2023-02-01T07:05:26;99340.44;;;5.01;100.00
63715;BME280;49858;48.956;9.076;2023-02-01T07:07:56;99344.59;;;4.85;100.00
63715;BME280;49858;48.956;9.076;2023-02-01T07:10:24;99348.13;;;4.85;100.00
63715;BME280;49858;48.956;9.076;2023-02-01T07:12:56;99344.78;;;4.75;100.00
63715;BME280;49858;48.956;9.076;2023-02-01T07:15:28;99349.03;;;4.81;100.00
63715;BME280;49858;48.956;9.076;2023-02-01T07:17:56;99347.31;;;4.71;100.00
63715;BME280;49858;48.956;9.076;2023-02-01T07:20:24;99351.25;;;4.79;100.00
63715;BME280;49858;48.956;9.076;2023-02-01T07:22:55;99361.75;;;4.72;100.00
63715;BME280;49858;48.956;9.076;2023-02-01T07:25:24;99359.22;;;4.75;100.00
63715;BME280;49858;48.956;9.076;2023-02-01T07:27:51;99364.38;;;4.77;100.00
63715;BME280;49858;48.956;9.076;2023-02-01T07:30:19;99369.94;;;4.85;100.00
63715;BME280;49858;48.956;9.076;2023-02-01T07:32:49;99381.31;;;4.74;100.00
63715;BME280;49858;48.956;9.076;2023-02-01T07:35:16;99353.66;;;5.08;100.00
63715;BME280;49858;48.956;9.076;2023-02-01T07:37:44;99367.41;;;4.75;100.00
63715;BME280;49858;48.956;9.076;2023-02-01T07:40:12;99370.13;;;4.75;100.00
63715;BME280;49858;48.956;9.076;2023-02-01T07:42:40;99349.44;;;4.88;100.00
63715;BME280;49858;48.956;9.076;2023-02-01T07:45:09;99354.66;;;4.84;100.00
63715;BME280;49858;48.956;9.076;2023-02-01T07:47:48;99343.59;;;4.81;100.00
63715;BME280;49858;48.956;9.076;2023-02-01T07:50:16;99356.28;;;4.72;100.00
63715;BME280;49858;48.956;9.076;2023-02-01T07:52:44;99344.88;;;4.83;100.00
63715;BME280;49858;48.956;9.076;2023-02-01T07:55:12;99360.13;;;4.84;100.00
63715;BME280;49858;48.956;9.076;2023-02-01T07:57:40;99357.09;;;4.72;100.00
63715;BME280;49858;48.956;9.076;2023-02-01T08:00:10;99360.22;;;4.79;100.00
63715;BME280;49858;48.956;9.076;2023-02-01T08:02:58;99353.16;;;4.78;100.00
63715;BME280;49858;48.956;9.076;2023-02-01T08:05:27;99346.31;;;4.81;100.00
63715;BME280;49858;48.956;9.076;2023-02-01T08:07:54;99326.72;;;4.79;100.00
63715;BME280;49858;48.956;9.076;2023-02-01T08:10:25;99337.63;;;4.93;100.00
63715;BME280;49858;48.956;9.076;2023-02-01T08:12:57;99330.66;;;5.14;100.00
63715;BME280;49858;48.956;9.076;2023-02-01T08:15:26;99325.81;;;4.97;100.00
63715;BME280;49858;48.956;9.076;2023-02-01T08:17:55;99321.88;;;4.90;100.00
63715;BME280;49858;48.956;9.076;2023-02-01T08:20:24;99321.78;;;4.95;100.00
63715;BME280;49858;48.956;9.076;2023-02-01T08:22:53;99322.78;;;4.99;100.00
63715;BME280;49858;48.956;9.076;2023-02-01T08:25:22;99335.41;;;4.95;100.00
63715;BME280;49858;48.956;9.076;2023-02-01T08:27:50;99336.00;;;5.19;100.00
63715;BME280;49858;48.956;9.076;2023-02-01T08:30:19;99337.28;;;5.22;100.00
63715;BME280;49858;48.956;9.076;2023-02-01T08:32:48;99340.53;;;5.10;100.00
63715;BME280;49858;48.956;9.076;2023-02-01T08:35:16;99328.22;;;5.12;100.00
63715;BME280;49858;48.956;9.076;2023-02-01T08:37:45;99335.06;;;5.24;100.00
63715;BME280;49858;48.956;9.076;2023-02-01T08:40:13;99336.38;;;5.12;100.00
63715;BME280;49858;48.956;9.076;2023-02-01T08:42:41;99338.13;;;5.22;100.00
63715;BME280;49858;48.956;9.076;2023-02-01T08:45:20;99354.47;;;5.22;100.00
63715;BME280;49858;48.956;9.076;2023-02-01T08:47:50;99337.69;;;5.43;100.00
63715;BME280;49858;48.956;9.076;2023-02-01T08:50:18;99353.06;;;5.25;100.00
63715;BME280;49858;48.956;9.076;2023-02-01T08:52:48;99338.97;;;5.45;100.00
63715;BME280;49858;48.956;9.076;2023-02-01T08:55:16;99348.63;;;5.15;100.00
63715;BME280;49858;48.956;9.076;2023-02-01T08:57:44;99348.50;;;5.20;100.00
63715;BME280;49858;48.956;9.076;2023-02-01T09:00:14;99333.25;;;5.19;100.00
63715;BME280;49858;48.956;9.076;2023-02-01T09:02:42;99345.69;;;5.25;100.00
63715;BME280;49858;48.956;9.076;2023-02-01T09:05:13;99373.47;;;5.13;100.00
63715;BME280;49858;48.956;9.076;2023-02-01T09:07:43;99377.59;;;5.11;100.00
63715;BME280;49858;48.956;9.076;2023-02-01T09:10:12;99359.84;;;5.13;100.00
63715;BME280;49858;48.956;9.076;2023-02-01T09:12:42;99361.44;;;5.15;100.00
63715;BME280;49858;48.956;9.076;2023-02-01T09:15:10;99350.13;;;5.21;100.00
63715;BME280;49858;48.956;9.076;2023-02-01T09:17:38;99365.56;;;5.39;100.00
63715;BME280;49858;48.956;9.076;2023-02-01T09:20:09;99351.63;;;5.41;100.00
63715;BME280;49858;48.956;9.076;2023-02-01T09:22:37;99359.09;;;5.35;100.00
63715;BME280;49858;48.956;9.076;2023-02-01T09:25:06;99374.25;;;5.42;100.00
63715;BME280;49858;48.956;9.076;2023-02-01T09:27:36;99360.63;;;5.42;100.00
63715;BME280;49858;48.956;9.076;2023-02-01T09:30:04;99379.41;;;5.29;100.00
63715;BME280;49858;48.956;9.076;2023-02-01T09:32:35;99368.06;;;5.50;100.00
63715;BME280;49858;48.956;9.076;2023-02-01T09:35:03;99360.81;;;5.31;100.00
63715;BME280;49858;48.956;9.076;2023-02-01T09:37:31;99373.97;;;5.29;100.00
63715;BME280;49858;48.956;9.076;2023-02-01T09:39:59;99367.56;;;5.48;100.00
63715;BME280;49858;48.956;9.076;2023-02-01T09:42:42;99369.19;;;5.49;100.00
63715;BME280;49858;48.956;9.076;2023-02-01T09:45:19;99392.72;;;5.45;100.00
63715;BME280;49858;48.956;9.076;2023-02-01T09:47:52;99375.00;;;5.70;100.00
63715;BME280;49858;48.956;9.076;2023-02-01T09:50:24;99368.28;;;5.89;100.00
63715;BME280;49858;48.956;9.076;2023-02-01T09:53:00;99364.09;;;6.06;100.00
63715;BME280;49858;48.956;9.076;2023-02-01T09:55:33;99373.88;;;6.07;100.00
63715;BME280;49858;48.956;9.076;2023-02-01T09:58:05;99375.69;;;6.11;100.00
63715;BME280;49858;48.956;9.076;2023-02-01T10:00:36;99379.91;;;5.95;100.00
63715;BME280;49858;48.956;9.076;2023-02-01T10:03:05;99378.97;;;6.00;100.00
63715;BME280;49858;48.956;9.076;2023-02-01T10:05:54;99383.38;;;6.09;100.00
63715;BME280;49858;48.956;9.076;2023-02-01T10:08:33;99380.00;;;6.26;100.00
63715;BME280;49858;48.956;9.076;2023-02-01T10:11:17;99393.25;;;5.97;100.00
63715;BME280;49858;48.956;9.076;2023-02-01T10:13:55;99393.88;;;6.16;100.00
63715;BME280;49858;48.956;9.076;2023-02-01T10:16:37;99400.97;;;6.17;100.00
63715;BME280;49858;48.956;9.076;2023-02-01T10:19:26;99428.53;;;6.29;100.00
63715;BME280;49858;48.956;9.076;2023-02-01T10:22:03;99409.47;;;6.15;100.00
63715;BME280;49858;48.956;9.076;2023-02-01T10:24:39;99436.00;;;5.87;100.00
63715;BME280;49858;48.956;9.076;2023-02-01T10:27:19;99432.47;;;5.87;100.00
63715;BME280;49858;48.956;9.076;2023-02-01T10:29:53;99433.19;;;6.29;100.00
63715;BME280;49858;48.956;9.076;2023-02-01T10:32:24;99429.16;;;6.26;100.00
63715;BME280;49858;48.956;9.076;2023-02-01T10:34:56;99429.56;;;5.97;100.00
63715;BME280;49858;48.956;9.076;2023-02-01T10:37:29;99417.00;;;5.96;100.00
63715;BME280;49858;48.956;9.076;2023-02-01T10:40:02;99450.47;;;5.88;100.00
63715;BME280;49858;48.956;9.076;2023-02-01T10:42:33;99423.72;;;5.76;100.00
63715;BME280;49858;48.956;9.076;2023-02-01T10:45:06;99436.34;;;5.86;100.00
63715;BME280;49858;48.956;9.076;2023-02-01T10:47:34;99441.81;;;5.72;100.00
63715;BME280;49858;48.956;9.076;2023-02-01T10:50:11;99429.06;;;5.95;100.00
63715;BME280;49858;48.956;9.076;2023-02-01T10:52:46;99417.78;;;6.10;100.00
63715;BME280;49858;48.956;9.076;2023-02-01T10:55:46;99413.38;;;6.01;100.00
63715;BME280;49858;48.956;9.076;2023-02-01T10:58:17;99410.34;;;6.25;100.00
63715;BME280;49858;48.956;9.076;2023-02-01T11:00:52;99405.28;;;5.96;100.00
63715;BME280;49858;48.956;9.076;2023-02-01T11:03:36;99400.28;;;5.75;100.00
63715;BME280;49858;48.956;9.076;2023-02-01T11:06:11;99396.88;;;5.56;100.00
63715;BME280;49858;48.956;9.076;2023-02-01T11:08:48;99395.84;;;5.66;100.00
63715;BME280;49858;48.956;9.076;2023-02-01T11:11:16;99407.75;;;5.83;100.00
63715;BME280;49858;48.956;9.076;2023-02-01T11:13:52;99396.81;;;5.83;100.00
63715;BME280;49858;48.956;9.076;2023-02-01T11:16:21;99373.53;;;5.86;100.00
63715;BME280;49858;48.956;9.076;2023-02-01T11:18:58;99383.34;;;5.87;100.00
63715;BME280;49858;48.956;9.076;2023-02-01T11:21:26;99391.72;;;6.04;100.00
63715;BME280;49858;48.956;9.076;2023-02-01T11:23:54;99388.41;;;5.94;100.00
63715;BME280;49858;48.956;9.076;2023-02-01T11:26:24;99398.44;;;5.84;100.00
63715;BME280;49858;48.956;9.076;2023-02-01T11:28:58;99372.53;;;5.96;100.00
63715;BME280;49858;48.956;9.076;2023-02-01T11:31:28;99387.00;;;5.82;100.00
63715;BME280;49858;48.956;9.076;2023-02-01T11:34:00;99365.22;;;5.91;100.00
63715;BME280;49858;48.956;9.076;2023-02-01T11:36:33;99354.53;;;5.95;100.00
63715;BME280;49858;48.956;9.076;2023-02-01T11:39:19;99331.69;;;5.77;100.00
63715;BME280;49858;48.956;9.076;2023-02-01T11:41:57;99346.78;;;5.74;100.00
63715;BME280;49858;48.956;9.076;2023-02-01T11:44:31;99344.22;;;5.78;100.00
63715;BME280;49858;48.956;9.076;2023-02-01T11:47:25;99334.50;;;5.85;100.00
63715;BME280;49858;48.956;9.076;2023-02-01T11:49:55;99328.03;;;5.95;100.00
63715;BME280;49858;48.956;9.076;2023-02-01T11:52:41;99321.84;;;5.89;100.00
63715;BME280;49858;48.956;9.076;2023-02-01T11:55:27;99318.00;;;5.90;100.00
63715;BME280;49858;48.956;9.076;2023-02-01T11:58:10;99326.53;;;6.11;100.00
63715;BME280;49858;48.956;9.076;2023-02-01T12:00:50;99311.56;;;6.09;100.00
63715;BME280;49858;48.956;9.076;2023-02-01T12:03:48;99311.16;;;5.93;100.00
63715;BME280;49858;48.956;9.076;2023-02-01T12:06:27;99303.72;;;6.16;100.00
63715;BME280;49858;48.956;9.076;2023-02-01T12:09:11;99304.66;;;6.11;100.00
63715;BME280;49858;48.956;9.076;2023-02-01T12:11:51;99317.53;;;6.11;100.00
63715;BME280;49858;48.956;9.076;2023-02-01T12:14:34;99312.78;;;5.80;100.00
63715;BME280;49858;48.956;9.076;2023-02-01T12:20:38;99342.69;;;5.85;100.00
63715;BME280;49858;48.956;9.076;2023-02-01T12:23:23;99311.34;;;5.83;100.00
63715;BME280;49858;48.956;9.076;2023-02-01T12:26:02;99317.22;;;6.12;100.00
63715;BME280;49858;48.956;9.076;2023-02-01T12:31:57;99309.59;;;6.01;100.00
63715;BME280;49858;48.956;9.076;2023-02-01T12:34:55;99318.94;;;5.86;100.00
63715;BME280;49858;48.956;9.076;2023-02-01T12:37:35;99312.63;;;6.22;100.00
63715;BME280;49858;48.956;9.076;2023-02-01T12:40:16;99355.34;;;5.81;100.00
63715;BME280;49858;48.956;9.076;2023-02-01T12:42:55;99329.94;;;6.17;100.00
63715;BME280;49858;48.956;9.076;2023-02-01T12:45:30;99330.09;;;6.12;100.00
63715;BME280;49858;48.956;9.076;2023-02-01T12:48:08;99329.97;;;5.81;100.00
63715;BME280;49858;48.956;9.076;2023-02-01T12:50:43;99330.19;;;6.07;100.00
63715;BME280;49858;48.956;9.076;2023-02-01T12:53:15;99323.91;;;6.29;100.00
63715;BME280;49858;48.956;9.076;2023-02-01T12:55:51;99311.00;;;6.52;100.00
63715;BME280;49858;48.956;9.076;2023-02-01T12:58:23;99324.22;;;6.27;100.00
63715;BME280;49858;48.956;9.076;2023-02-01T13:00:59;99307.28;;;6.17;100.00
63715;BME280;49858;48.956;9.076;2023-02-01T13:03:34;99302.56;;;6.08;100.00
63715;BME280;49858;48.956;9.076;2023-02-01T13:06:08;99297.06;;;6.00;100.00
63715;BME280;49858;48.956;9.076;2023-02-01T13:08:43;99326.56;;;5.75;100.00
63715;BME280;49858;48.956;9.076;2023-02-01T13:11:18;99332.16;;;5.70;100.00
63715;BME280;49858;48.956;9.076;2023-02-01T13:14:01;99316.84;;;5.69;100.00
63715;BME280;49858;48.956;9.076;2023-02-01T13:16:34;99313.09;;;5.79;100.00
63715;BME280;49858;48.956;9.076;2023-02-01T13:19:10;99305.84;;;5.74;100.00
63715;BME280;49858;48.956;9.076;2023-02-01T13:21:43;99317.66;;;5.83;100.00
63715;BME280;49858;48.956;9.076;2023-02-01T13:24:26;99291.28;;;5.79;100.00
63715;BME280;49858;48.956;9.076;2023-02-01T13:26:57;99304.94;;;6.01;100.00
63715;BME280;49858;48.956;9.076;2023-02-01T13:29:26;99308.63;;;5.83;100.00
63715;BME280;49858;48.956;9.076;2023-02-01T13:35:36;99308.38;;;5.71;100.00
63715;BME280;49858;48.956;9.076;2023-02-01T13:38:35;99292.41;;;5.64;100.00
63715;BME280;49858;48.956;9.076;2023-02-01T13:41:20;99270.47;;;5.69;100.00
63715;BME280;49858;48.956;9.076;2023-02-01T13:43:55;99278.81;;;5.50;100.00
63715;BME280;49858;48.956;9.076;2023-02-01T13:46:25;99269.28;;;5.61;100.00